Time;durP1;ratioP1;P1;durP2;ratioP2;P2;SDS_P1;SDS_P2;PMS_P1;PMS_P2;Temp;Humidity;BMP_temperature;BMP_pressure;BME280_temperature;BME280_humidity;BME280_pressure;Samples;Min_cycle;Max_cycle;Signal;HPM_P1;HPM_P2
2022/09/21 00:00:52;;;;;;;;;;;;;;;16.20;48.96;99437.41;4472505;32;33694;-93
2022/09/21 00:03:19;;;;;;;;;;;;;;;16.51;48.32;99435.47;4482441;32;33627;-85
2022/09/21 00:05:46;;;;;;;;;;;;;;;16.49;48.14;99437.25;4482560;32;34862;-85
2022/09/21 00:08:14;;;;;;;;;;;;;;;15.31;50.79;99437.75;4482210;32;34495;-85
2022/09/21 00:10:41;;;;;;;;;;;;;;;15.76;49.81;99438.53;4481636;32;35156;-85
2022/09/21 00:13:10;;;;;;;;;;;;;;;15.49;50.61;99437.72;4480621;32;33438;-86
2022/09/21 00:15:38;;;;;;;;;;;;;;;15.85;49.68;99430.63;4452959;32;35320;-86
2022/09/21 00:18:05;;;;;;;;;;;;;;;15.30;50.88;99439.50;4467194;32;34485;-90
2022/09/21 00:20:32;;;;;;;;;;;;;;;16.37;48.10;99437.34;4467057;32;35196;-85
2022/09/21 00:22:59;;;;;;;;;;;;;;;15.27;51.21;99433.41;4467691;32;33600;-85
2022/09/21 00:25:27;;;;;;;;;;;;;;;15.03;51.94;99424.72;4482196;32;34040;-85
2022/09/21 00:27:54;;;;;;;;;;;;;;;14.47;53.52;99430.78;4482230;32;34527;-85
2022/09/21 00:30:22;;;;;;;;;;;;;;;13.31;56.92;99435.56;4482317;32;35104;-85
2022/09/21 00:32:49;;;;;;;;;;;;;;;14.66;53.41;99431.72;4482567;32;34293;-85
2022/09/21 00:35:16;;;;;;;;;;;;;;;15.10;51.95;99433.41;4467206;32;35121;-93
2022/09/21 00:37:43;;;;;;;;;;;;;;;15.64;50.21;99428.06;4466906;32;35291;-84
2022/09/21 00:40:11;;;;;;;;;;;;;;;15.50;50.55;99435.97;4466608;32;34240;-95
2022/09/21 00:42:38;;;;;;;;;;;;;;;15.41;50.74;99436.84;4466869;32;33752;-84
2022/09/21 00:45:05;;;;;;;;;;;;;;;15.34;50.72;99435.09;4480244;32;33872;-90
2022/09/21 00:47:33;;;;;;;;;;;;;;;15.77;49.66;99430.66;4467791;32;34163;-89
2022/09/21 00:50:01;;;;;;;;;;;;;;;15.99;48.84;99436.66;4478542;32;34486;-84
2022/09/21 00:52:30;;;;;;;;;;;;;;;15.27;50.68;99443.84;4466589;32;33799;-85
2022/09/21 00:55:06;;;;;;;;;;;;;;;14.83;52.01;99448.22;4466481;32;34339;-85
2022/09/21 00:57:34;;;;;;;;;;;;;;;14.87;52.09;99448.22;4466493;32;34286;-89
2022/09/21 01:00:03;;;;;;;;;;;;;;;14.97;51.63;99448.22;4454890;32;34526;-85
2022/09/21 01:02:31;;;;;;;;;;;;;;;15.30;50.57;99447.31;4464260;32;33424;-89
2022/09/21 01:04:58;;;;;;;;;;;;;;;14.23;53.41;99455.06;4472935;32;35103;-86
2022/09/21 01:07:27;;;;;;;;;;;;;;;14.64;52.22;99448.22;4452126;32;34302;-92
2022/09/21 01:09:57;;;;;;;;;;;;;;;14.63;52.41;99451.72;4467017;32;34277;-93
2022/09/21 01:12:42;;;;;;;;;;;;;;;15.26;50.43;99447.31;4452140;32;33111;-95
2022/09/21 01:15:23;;;;;;;;;;;;;;;15.31;50.46;99448.19;4466192;32;34194;-87
2022/09/21 01:17:54;;;;;;;;;;;;;;;14.71;51.86;99452.59;4451955;32;34215;-84
2022/09/21 01:20:34;;;;;;;;;;;;;;;14.49;52.66;99447.31;4470904;32;35282;-84
2022/09/21 01:23:06;;;;;;;;;;;;;;;14.21;53.30;99455.94;4469872;32;32482;-84
2022/09/21 01:25:52;;;;;;;;;;;;;;;13.66;55.01;99458.34;4469056;32;34267;-85
2022/09/21 01:28:29;;;;;;;;;;;;;;;14.16;53.62;99462.88;4483980;32;35192;-85
2022/09/21 01:30:57;;;;;;;;;;;;;;;13.90;54.33;99455.81;4461688;32;34098;-85
2022/09/21 01:33:24;;;;;;;;;;;;;;;13.81;54.67;99453.19;4454480;32;34254;-84
2022/09/21 01:35:53;;;;;;;;;;;;;;;13.54;55.45;99457.41;4469301;32;34803;-84
2022/09/21 01:38:23;;;;;;;;;;;;;;;13.69;54.85;99448.78;4468248;32;34267;-84
2022/09/21 01:40:51;;;;;;;;;;;;;;;13.77;54.96;99457.50;4461187;31;35227;-85
2022/09/21 01:43:24;;;;;;;;;;;;;;;13.86;54.38;99454.97;4470164;32;34398;-84
2022/09/21 01:45:53;;;;;;;;;;;;;;;12.96;56.70;99467.41;4483309;32;34116;-89
2022/09/21 01:48:21;;;;;;;;;;;;;;;14.20;53.39;99451.56;4469834;32;35269;-85
2022/09/21 01:50:55;;;;;;;;;;;;;;;14.73;51.98;99458.66;4469338;32;34105;-85
2022/09/21 01:53:24;;;;;;;;;;;;;;;14.89;51.53;99462.13;4469642;32;33237;-85
2022/09/21 01:55:52;;;;;;;;;;;;;;;14.75;51.70;99459.53;4454803;32;34950;-93
2022/09/21 01:58:19;;;;;;;;;;;;;;;15.11;50.65;99455.16;4454170;32;34914;-86
2022/09/21 02:00:51;;;;;;;;;;;;;;;14.28;52.73;99458.56;4474126;32;34670;-86
2022/09/21 02:03:29;;;;;;;;;;;;;;;14.40;52.43;99462.94;4468290;32;33379;-85
2022/09/21 02:05:57;;;;;;;;;;;;;;;14.63;52.02;99454.31;4469476;32;34002;-94
2022/09/21 02:08:25;;;;;;;;;;;;;;;14.19;53.36;99457.66;4469203;32;35018;-86
2022/09/21 02:10:52;;;;;;;;;;;;;;;14.47;52.63;99462.09;4463383;32;34494;-84
2022/09/21 02:13:22;;;;;;;;;;;;;;;14.71;52.01;99458.66;4469378;32;34410;-85
2022/09/21 02:15:55;;;;;;;;;;;;;;;14.92;51.65;99465.63;4479447;32;34284;-85
2022/09/21 02:18:25;;;;;;;;;;;;;;;15.25;50.61;99461.25;4478566;32;34400;-85
2022/09/21 02:20:55;;;;;;;;;;;;;;;15.29;50.49;99466.47;4483445;32;34431;-85
2022/09/21 02:23:31;;;;;;;;;;;;;;;14.33;53.08;99466.41;4468203;32;33532;-84
2022/09/21 02:26:05;;;;;;;;;;;;;;;13.62;55.08;99475.69;4482794;32;34256;-84
2022/09/21 02:28:42;;;;;;;;;;;;;;;13.97;54.37;99464.53;4467846;32;34344;-85
2022/09/21 02:31:19;;;;;;;;;;;;;;;13.92;54.49;99469.75;4455481;32;34125;-95
2022/09/21 02:33:50;;;;;;;;;;;;;;;13.80;54.57;99474.91;4468893;32;33662;-85
2022/09/21 02:36:25;;;;;;;;;;;;;;;14.49;52.73;99472.53;4469348;32;34208;-91
2022/09/21 02:38:53;;;;;;;;;;;;;;;14.45;53.08;99476.84;4469439;32;35777;-84
2022/09/21 02:41:22;;;;;;;;;;;;;;;14.80;52.03;99473.44;4458273;32;35034;-85
2022/09/21 02:43:52;;;;;;;;;;;;;;;14.05;53.68;99470.66;4474272;32;33223;-95
2022/09/21 02:46:28;;;;;;;;;;;;;;;14.92;51.32;99473.44;4469384;32;33865;-85
2022/09/21 02:48:57;;;;;;;;;;;;;;;15.12;50.89;99475.22;4477986;32;34497;-90
2022/09/21 02:51:25;;;;;;;;;;;;;;;14.97;51.47;99474.34;4475085;32;34246;-84
2022/09/21 02:53:52;;;;;;;;;;;;;;;14.45;52.89;99483.81;4469374;32;34354;-85
2022/09/21 02:56:19;;;;;;;;;;;;;;;14.95;51.43;99475.19;4479291;32;35060;-83
2022/09/21 02:58:48;;;;;;;;;;;;;;;14.43;52.64;99478.56;4457375;32;34575;-85
2022/09/21 03:01:15;;;;;;;;;;;;;;;14.04;53.80;99480.22;4468478;32;34780;-94
2022/09/21 03:03:43;;;;;;;;;;;;;;;14.53;52.63;99480.38;4483879;32;33688;-94
2022/09/21 03:06:10;;;;;;;;;;;;;;;14.83;51.88;99478.69;4465201;32;34460;-90
2022/09/21 03:08:38;;;;;;;;;;;;;;;14.86;51.75;99485.66;4467723;32;34147;-89
2022/09/21 03:11:05;;;;;;;;;;;;;;;15.32;50.39;99486.50;4479848;32;34384;-95
2022/09/21 03:13:33;;;;;;;;;;;;;;;14.53;52.03;99483.00;4476872;32;33687;-83
2022/09/21 03:16:01;;;;;;;;;;;;;;;15.49;50.01;99495.19;4469623;32;34070;-84
2022/09/21 03:18:29;;;;;;;;;;;;;;;15.41;50.19;99489.06;4465831;32;34729;-84
2022/09/21 03:20:56;;;;;;;;;;;;;;;15.66;49.52;99495.16;4478589;32;34333;-87
2022/09/21 03:23:24;;;;;;;;;;;;;;;14.29;53.28;99495.94;4483408;32;34415;-83
2022/09/21 03:25:51;;;;;;;;;;;;;;;15.38;50.14;99501.28;4472098;32;33914;-91
2022/09/21 03:28:18;;;;;;;;;;;;;;;15.56;50.05;99499.50;4472105;32;34548;-94
2022/09/21 03:30:49;;;;;;;;;;;;;;;15.74;49.26;99496.00;4482166;32;35175;-88
2022/09/21 03:33:18;;;;;;;;;;;;;;;15.61;49.37;99503.84;4456955;32;32980;-91
2022/09/21 03:35:47;;;;;;;;;;;;;;;15.07;50.73;99503.91;4475139;32;33876;-92
2022/09/21 03:38:15;;;;;;;;;;;;;;;14.75;51.70;99499.56;4467737;32;35635;-86
2022/09/21 03:40:46;;;;;;;;;;;;;;;14.82;51.52;99500.44;4483223;32;35059;-86
2022/09/21 03:43:13;;;;;;;;;;;;;;;14.97;50.95;99503.06;4468896;32;34425;-93
2022/09/21 03:45:41;;;;;;;;;;;;;;;14.82;51.43;99500.44;4474039;32;34877;-91
2022/09/21 03:48:09;;;;;;;;;;;;;;;14.83;51.43;99504.78;4472925;32;34028;-84
2022/09/21 03:50:37;;;;;;;;;;;;;;;15.06;50.63;99504.78;4467442;32;35081;-84
2022/09/21 03:53:04;;;;;;;;;;;;;;;13.91;53.61;99514.91;4453963;32;34256;-93
2022/09/21 03:55:32;;;;;;;;;;;;;;;14.41;52.51;99511.63;4453760;32;34910;-85
2022/09/21 03:57:59;;;;;;;;;;;;;;;14.66;51.54;99516.91;4467440;32;35237;-91
2022/09/21 04:00:26;;;;;;;;;;;;;;;15.26;49.59;99512.63;4453292;32;34311;-84
2022/09/21 04:02:54;;;;;;;;;;;;;;;14.83;50.70;99513.47;4453467;32;34246;-94
2022/09/21 04:05:21;;;;;;;;;;;;;;;14.92;50.58;99517.81;4471925;32;34964;-92
2022/09/21 04:07:49;;;;;;;;;;;;;;;15.64;48.74;99512.56;4476232;32;34336;-94
2022/09/21 04:10:18;;;;;;;;;;;;;;;15.11;49.46;99515.22;4469231;31;34153;-84
2022/09/21 04:12:45;;;;;;;;;;;;;;;15.50;48.75;99516.97;4489111;31;33223;-96
2022/09/21 04:15:14;;;;;;;;;;;;;;;15.66;48.38;99516.09;4454461;32;33611;-83
2022/09/21 04:17:41;;;;;;;;;;;;;;;15.49;48.52;99523.03;4462743;32;35315;-93
2022/09/21 04:20:08;;;;;;;;;;;;;;;14.72;50.70;99528.25;4469513;32;34176;-85
2022/09/21 04:22:35;;;;;;;;;;;;;;;15.23;49.22;99523.09;4470303;32;34408;-83
2022/09/21 04:25:09;;;;;;;;;;;;;;;15.47;48.68;99530.03;4477885;32;34270;-86
2022/09/21 04:27:36;;;;;;;;;;;;;;;14.43;51.15;99528.13;4463155;32;34454;-94
2022/09/21 04:30:04;;;;;;;;;;;;;;;14.60;51.14;99530.84;4469126;32;35103;-85
2022/09/21 04:32:32;;;;;;;;;;;;;;;14.62;51.18;99529.09;4456955;32;33434;-94
2022/09/21 04:34:59;;;;;;;;;;;;;;;14.26;52.17;99530.72;4470467;32;34094;-84
2022/09/21 04:37:26;;;;;;;;;;;;;;;14.31;51.94;99530.72;4470375;32;34350;-86
2022/09/21 04:39:53;;;;;;;;;;;;;;;13.78;53.58;99533.94;4482520;32;34968;-85
2022/09/21 04:42:21;;;;;;;;;;;;;;;14.53;51.73;99535.16;4478433;32;34189;-85
2022/09/21 04:44:48;;;;;;;;;;;;;;;15.19;49.99;99530.06;4470714;32;34726;-82
2022/09/21 04:47:15;;;;;;;;;;;;;;;13.93;53.63;99538.38;4466711;32;34114;-84
2022/09/21 04:49:42;;;;;;;;;;;;;;;14.00;53.38;99543.63;4468124;32;35141;-84
2022/09/21 04:52:09;;;;;;;;;;;;;;;12.49;57.70;99547.59;4467575;32;34135;-95
2022/09/21 04:54:40;;;;;;;;;;;;;;;13.80;54.36;99553.09;4468098;32;33583;-90
2022/09/21 04:57:07;;;;;;;;;;;;;;;13.28;55.80;99552.72;4469472;32;34039;-85
2022/09/21 04:59:34;;;;;;;;;;;;;;;13.32;55.85;99552.75;4469465;32;33578;-84
2022/09/21 05:02:01;;;;;;;;;;;;;;;13.84;54.63;99554.84;4469094;32;34555;-84
2022/09/21 05:04:28;;;;;;;;;;;;;;;14.75;51.98;99554.38;4468566;32;35140;-83
2022/09/21 05:06:58;;;;;;;;;;;;;;;13.79;54.34;99567.00;4468913;32;34256;-84
2022/09/21 05:12:11;;;;;;;;;;;;;;;14.12;53.22;99564.53;4468593;32;33097;-83
2022/09/21 05:14:39;;;;;;;;;;;;;;;13.45;55.04;99556.34;4468289;32;34501;-83
2022/09/21 05:17:07;;;;;;;;;;;;;;;12.89;57.01;99569.69;4468660;32;34351;-83
2022/09/21 05:19:34;;;;;;;;;;;;;;;14.16;53.74;99559.34;4468306;32;35204;-84
2022/09/21 05:22:01;;;;;;;;;;;;;;;13.96;54.52;99560.13;4468597;32;33801;-87
2022/09/21 05:24:28;;;;;;;;;;;;;;;15.28;50.95;99555.28;4469654;32;35125;-91
2022/09/21 05:26:55;;;;;;;;;;;;;;;13.89;54.37;99560.94;4469709;32;35052;-86
2022/09/21 05:29:23;;;;;;;;;;;;;;;14.29;53.38;99556.81;4468415;32;34398;-84
2022/09/21 05:31:51;;;;;;;;;;;;;;;13.35;55.75;99567.53;4468521;32;33694;-84
2022/09/21 05:34:21;;;;;;;;;;;;;;;14.32;53.23;99558.56;4455949;32;33712;-85
2022/09/21 05:36:49;;;;;;;;;;;;;;;14.49;53.78;99567.34;4468546;32;34067;-91
2022/09/21 05:39:16;;;;;;;;;;;;;;;14.60;52.42;99562.16;4467907;32;34511;-89
2022/09/21 05:41:43;;;;;;;;;;;;;;;14.55;52.05;99569.09;4468417;32;33717;-86
2022/09/21 05:44:12;;;;;;;;;;;;;;;14.93;52.88;99568.31;4467752;32;34705;-91
2022/09/21 05:46:48;;;;;;;;;;;;;;;15.70;50.06;99570.09;4464074;32;34339;-95
2022/09/21 05:49:41;;;;;;;;;;;;;;;14.14;53.65;99575.00;4470862;32;34868;-84
2022/09/21 05:52:11;;;;;;;;;;;;;;;14.36;53.25;99576.84;4484312;32;33507;-85
2022/09/21 05:54:45;;;;;;;;;;;;;;;14.92;51.73;99580.47;4469720;32;34979;-84
2022/09/21 05:57:33;;;;;;;;;;;;;;;14.50;52.90;99574.28;4469225;32;33856;-84
2022/09/21 06:00:03;;;;;;;;;;;;;;;14.41;52.72;99576.84;4469792;32;34245;-84
2022/09/21 06:02:43;;;;;;;;;;;;;;;13.23;56.40;99596.94;4484023;32;33974;-84
2022/09/21 06:05:12;;;;;;;;;;;;;;;14.15;54.18;99592.38;4483617;32;34272;-84
2022/09/21 06:07:40;;;;;;;;;;;;;;;14.85;52.20;99591.81;4468840;32;34074;-95
2022/09/21 06:10:08;;;;;;;;;;;;;;;14.66;52.82;99590.00;4462719;32;35175;-95
2022/09/21 06:12:35;;;;;;;;;;;;;;;15.01;51.52;99590.97;4481258;32;33360;-85
2022/09/21 06:15:03;;;;;;;;;;;;;;;14.63;52.70;99587.41;4484504;32;34250;-89
2022/09/21 06:17:31;;;;;;;;;;;;;;;14.58;52.94;99590.88;4483508;32;34589;-85
2022/09/21 06:19:58;;;;;;;;;;;;;;;15.06;51.38;99594.44;4465127;31;34925;-84
2022/09/21 06:22:25;;;;;;;;;;;;;;;14.36;53.50;99597.69;4473841;32;33389;-84
2022/09/21 06:24:53;;;;;;;;;;;;;;;15.18;51.70;99592.72;4483909;32;34184;-84
2022/09/21 06:27:20;;;;;;;;;;;;;;;15.01;52.11;99593.56;4466292;32;34274;-84
2022/09/21 06:29:47;;;;;;;;;;;;;;;14.60;53.57;99596.94;4483786;32;34870;-84
2022/09/21 06:32:14;;;;;;;;;;;;;;;15.31;51.38;99594.47;4483628;32;33426;-83
2022/09/21 06:34:43;;;;;;;;;;;;;;;15.20;51.66;99594.47;4489552;31;34074;-84
2022/09/21 06:37:10;;;;;;;;;;;;;;;15.21;51.36;99597.94;4499471;31;34572;-84
2022/09/21 06:39:37;;;;;;;;;;;;;;;14.36;54.09;99594.22;4493427;31;34817;-85
2022/09/21 06:42:06;;;;;;;;;;;;;;;14.58;53.57;99596.09;4483521;32;34543;-95
2022/09/21 06:44:34;;;;;;;;;;;;;;;14.44;53.89;99596.87;4477346;32;35265;-85
2022/09/21 06:47:01;;;;;;;;;;;;;;;15.09;52.37;99594.44;4481241;31;34011;-85
2022/09/21 06:49:28;;;;;;;;;;;;;;;14.72;53.38;99596.09;4483655;32;34571;-85
2022/09/21 06:51:55;;;;;;;;;;;;;;;15.25;52.26;99595.34;4483863;32;33973;-85
2022/09/21 06:54:23;;;;;;;;;;;;;;;15.53;51.33;99609.28;4482349;31;34354;-85
2022/09/21 06:56:50;;;;;;;;;;;;;;;15.51;51.67;99604.91;4483380;32;34326;-84
2022/09/21 06:59:17;;;;;;;;;;;;;;;14.31;54.47;99604.59;4483635;31;35516;-84
2022/09/21 07:01:45;;;;;;;;;;;;;;;14.64;54.02;99610.00;4483616;32;33502;-84
2022/09/21 07:04:12;;;;;;;;;;;;;;;15.63;51.24;99617.97;4483546;32;34913;-84
2022/09/21 07:06:39;;;;;;;;;;;;;;;15.33;51.98;99616.22;4483694;32;34332;-84
2022/09/21 07:09:07;;;;;;;;;;;;;;;15.12;52.86;99618.84;4483819;32;34413;-84
2022/09/21 07:11:54;;;;;;;;;;;;;;;15.40;52.26;99611.87;4483285;32;34511;-84
2022/09/21 07:14:22;;;;;;;;;;;;;;;15.54;51.89;99615.38;4483653;32;33998;-84
2022/09/21 07:16:49;;;;;;;;;;;;;;;15.69;51.66;99612.78;4483373;32;34137;-84
2022/09/21 07:19:16;;;;;;;;;;;;;;;15.63;51.72;99619.72;4483256;32;33981;-83
2022/09/21 07:21:44;;;;;;;;;;;;;;;15.18;52.33;99617.09;4483476;32;33169;-84
2022/09/21 07:24:11;;;;;;;;;;;;;;;15.26;52.96;99620.56;4483554;32;34089;-84
2022/09/21 07:26:39;;;;;;;;;;;;;;;15.61;52.04;99626.69;4469316;32;34018;-84
2022/09/21 07:29:06;;;;;;;;;;;;;;;15.45;52.12;99623.19;4483491;32;34357;-84
2022/09/21 07:31:34;;;;;;;;;;;;;;;16.11;50.26;99612.72;4483783;32;34604;-84
2022/09/21 07:34:02;;;;;;;;;;;;;;;15.13;53.01;99624.06;4483684;31;34120;-84
2022/09/21 07:36:29;;;;;;;;;;;;;;;15.96;51.02;99624.97;4483374;31;34517;-83
2022/09/21 07:38:56;;;;;;;;;;;;;;;15.03;53.09;99622.28;4483276;32;35131;-84
2022/09/21 07:41:24;;;;;;;;;;;;;;;14.78;54.42;99631.81;4484266;32;34311;-84
2022/09/21 07:43:52;;;;;;;;;;;;;;;16.23;49.85;99617.91;4483306;32;34279;-84
2022/09/21 07:46:19;;;;;;;;;;;;;;;15.51;51.92;99631.06;4483355;32;34836;-84
2022/09/21 07:48:46;;;;;;;;;;;;;;;16.18;50.87;99630.16;4456457;32;35046;-84
2022/09/21 07:51:14;;;;;;;;;;;;;;;16.03;51.25;99637.16;4468847;32;34382;-84
2022/09/21 07:53:42;;;;;;;;;;;;;;;16.16;50.72;99642.34;4469023;32;34326;-84
2022/09/21 07:56:11;;;;;;;;;;;;;;;16.23;50.57;99641.47;4483519;32;33911;-84
2022/09/21 08:01:24;;;;;;;;;;;;;;;16.71;49.14;99629.09;4471041;32;33476;-83
2022/09/21 08:03:53;;;;;;;;;;;;;;;16.09;50.80;99630.16;4468652;32;34033;-84
2022/09/21 08:06:20;;;;;;;;;;;;;;;15.82;51.29;99632.81;4482948;32;34526;-84
2022/09/21 08:08:48;;;;;;;;;;;;;;;16.33;50.42;99627.50;4482765;32;35156;-84
2022/09/21 08:11:23;;;;;;;;;;;;;;;17.27;47.62;99623.53;4469475;32;33294;-84
2022/09/21 08:13:53;;;;;;;;;;;;;;;17.52;47.03;99634.69;4468586;32;34222;-84
2022/09/21 08:16:21;;;;;;;;;;;;;;;17.03;48.28;99631.56;4482816;32;34583;-84
2022/09/21 08:18:50;;;;;;;;;;;;;;;17.84;46.38;99632.72;4482800;31;34702;-84
2022/09/21 08:21:18;;;;;;;;;;;;;;;17.52;46.63;99634.69;4482868;32;33207;-84
2022/09/21 08:23:47;;;;;;;;;;;;;;;17.57;47.90;99629.41;4468426;32;33930;-84
2022/09/21 08:26:19;;;;;;;;;;;;;;;17.94;46.48;99632.63;4482564;32;34868;-84
2022/09/21 08:28:48;;;;;;;;;;;;;;;17.42;47.31;99634.78;4482849;32;34366;-84
2022/09/21 08:31:18;;;;;;;;;;;;;;;18.21;46.10;99630.59;4469458;32;33771;-84
2022/09/21 08:33:46;;;;;;;;;;;;;;;18.14;45.51;99639.41;4484623;32;34468;-85
2022/09/21 08:36:13;;;;;;;;;;;;;;;18.42;45.71;99625.09;4484575;32;33711;-84
2022/09/21 08:38:40;;;;;;;;;;;;;;;17.62;46.97;99630.25;4484656;32;34236;-84
2022/09/21 08:41:16;;;;;;;;;;;;;;;17.62;47.09;99630.25;4484909;32;33571;-84
2022/09/21 08:43:49;;;;;;;;;;;;;;;18.08;45.52;99631.62;4484877;32;34965;-84
2022/09/21 08:46:17;;;;;;;;;;;;;;;18.13;46.19;99637.69;4470350;32;35330;-84
2022/09/21 08:48:55;;;;;;;;;;;;;;;18.43;45.73;99625.97;4470556;32;35368;-85
2022/09/21 08:51:25;;;;;;;;;;;;;;;18.14;46.90;99649.91;4470482;32;33592;-84
2022/09/21 08:53:54;;;;;;;;;;;;;;;16.89;48.44;99636.84;4470669;32;35011;-84
2022/09/21 08:56:22;;;;;;;;;;;;;;;18.15;45.69;99641.16;4484450;32;34274;-84
2022/09/21 08:58:49;;;;;;;;;;;;;;;17.74;46.11;99645.88;4470009;32;34258;-84
2022/09/21 09:01:23;;;;;;;;;;;;;;;18.33;45.84;99640.09;4484457;32;33420;-84
2022/09/21 09:04:15;;;;;;;;;;;;;;;19.15;43.66;99641.69;4484388;32;33895;-84
2022/09/21 09:06:46;;;;;;;;;;;;;;;18.37;44.59;99636.53;4470013;32;34503;-84
2022/09/21 09:09:32;;;;;;;;;;;;;;;17.38;47.68;99641.78;4470060;32;34414;-84
2022/09/21 09:12:00;;;;;;;;;;;;;;;18.32;45.82;99647.09;4470138;32;34617;-84
2022/09/21 09:14:30;;;;;;;;;;;;;;;18.31;46.42;99644.50;4484223;32;33765;-84
2022/09/21 09:17:17;;;;;;;;;;;;;;;18.83;43.80;99639.53;4484207;32;35228;-84
2022/09/21 09:19:48;;;;;;;;;;;;;;;18.37;45.24;99636.53;4484059;32;34391;-85
2022/09/21 09:22:16;;;;;;;;;;;;;;;18.46;44.94;99637.31;4469945;32;32798;-84
2022/09/21 09:24:48;;;;;;;;;;;;;;;18.47;45.16;99639.03;4470560;32;33773;-84
2022/09/21 09:27:26;;;;;;;;;;;;;;;18.13;45.74;99638.53;4484092;32;34417;-84
2022/09/21 09:30:00;;;;;;;;;;;;;;;18.86;44.38;99630.69;4484641;32;34554;-84
2022/09/21 09:32:42;;;;;;;;;;;;;;;19.13;43.52;99625.09;4470165;32;33410;-84
2022/09/21 09:35:18;;;;;;;;;;;;;;;19.28;43.25;99623.09;4484161;32;33982;-86
2022/09/21 09:37:46;;;;;;;;;;;;;;;19.40;41.68;99633.44;4483916;31;34458;-85
2022/09/21 09:40:13;;;;;;;;;;;;;;;18.81;43.07;99629.91;4470360;32;35178;-86
2022/09/21 09:42:47;;;;;;;;;;;;;;;18.83;42.31;99623.75;4483972;32;34483;-84
2022/09/21 09:45:24;;;;;;;;;;;;;;;19.31;42.86;99623.91;4469941;32;35020;-84
2022/09/21 09:47:52;;;;;;;;;;;;;;;18.37;45.07;99626.03;4470642;32;35243;-84
2022/09/21 09:50:23;;;;;;;;;;;;;;;18.86;44.94;99633.34;4484192;32;33855;-85
2022/09/21 09:52:51;;;;;;;;;;;;;;;19.21;43.36;99627.59;4470536;32;33564;-85
2022/09/21 09:55:24;;;;;;;;;;;;;;;18.43;44.60;99631.22;4470057;32;34068;-84
2022/09/21 09:57:53;;;;;;;;;;;;;;;18.30;44.84;99632.28;4470009;32;34050;-85
2022/09/21 10:00:21;;;;;;;;;;;;;;;18.38;44.98;99633.91;4470377;32;35135;-89
2022/09/21 10:02:50;;;;;;;;;;;;;;;18.37;44.50;99623.41;4484001;32;34043;-86
2022/09/21 10:05:18;;;;;;;;;;;;;;;18.81;43.56;99628.16;4483771;32;35040;-84
2022/09/21 10:07:46;;;;;;;;;;;;;;;18.51;43.63;99629.38;4469972;32;34261;-85
2022/09/21 10:10:31;;;;;;;;;;;;;;;19.22;42.24;99637.22;4469614;32;35040;-85
2022/09/21 10:13:14;;;;;;;;;;;;;;;19.10;42.94;99624.25;4484634;31;34371;-84
2022/09/21 10:15:50;;;;;;;;;;;;;;;18.54;43.45;99626.72;4483789;31;34580;-94
2022/09/21 10:18:24;;;;;;;;;;;;;;;18.96;43.54;99614.81;4484010;32;34364;-91
2022/09/21 10:20:54;;;;;;;;;;;;;;;19.71;41.90;99620.69;4469893;32;34363;-86
2022/09/21 10:23:22;;;;;;;;;;;;;;;18.94;43.15;99620.97;4484161;32;33796;-85
2022/09/21 10:25:53;;;;;;;;;;;;;;;19.41;42.67;99606.25;4470120;32;35067;-96
2022/09/21 10:28:20;;;;;;;;;;;;;;;19.49;43.01;99614.88;4469518;32;34888;-85
2022/09/21 10:30:48;;;;;;;;;;;;;;;19.20;42.38;99612.69;4485294;32;34102;-85
2022/09/21 10:33:19;;;;;;;;;;;;;;;19.77;41.43;99603.91;4485195;32;33558;-84
2022/09/21 10:35:52;;;;;;;;;;;;;;;19.61;42.86;99617.28;4483743;31;34115;-85
2022/09/21 10:38:20;;;;;;;;;;;;;;;19.26;42.08;99607.34;4483649;32;34023;-85
2022/09/21 10:40:49;;;;;;;;;;;;;;;19.81;41.81;99606.50;4470325;32;34881;-85
2022/09/21 10:43:39;;;;;;;;;;;;;;;20.31;41.90;99604.66;4470507;32;34270;-84
2022/09/21 10:46:10;;;;;;;;;;;;;;;20.40;42.14;99598.34;4470004;32;34519;-85
2022/09/21 10:48:37;;;;;;;;;;;;;;;19.99;39.52;99597.37;4483844;32;34930;-84
2022/09/21 10:51:04;;;;;;;;;;;;;;;20.12;42.51;99598.88;4483722;32;34732;-84
2022/09/21 10:53:35;;;;;;;;;;;;;;;20.45;40.81;99603.50;4483274;32;33161;-85
2022/09/21 10:56:07;;;;;;;;;;;;;;;20.18;40.68;99598.75;4470155;32;34286;-85
2022/09/21 10:59:02;;;;;;;;;;;;;;;21.03;38.55;99599.66;4470299;32;35225;-85
2022/09/21 11:01:30;;;;;;;;;;;;;;;20.09;40.95;99603.34;4484664;32;34171;-85
2022/09/21 11:04:07;;;;;;;;;;;;;;;20.57;39.98;99590.09;4469438;32;33391;-86
2022/09/21 11:06:45;;;;;;;;;;;;;;;19.63;40.81;99588.38;4469637;32;35153;-84
2022/09/21 11:09:16;;;;;;;;;;;;;;;20.92;40.03;99591.97;4469301;32;34227;-84
2022/09/21 11:11:58;;;;;;;;;;;;;;;20.32;41.85;99590.59;4484032;32;34000;-85
2022/09/21 11:14:43;;;;;;;;;;;;;;;19.83;41.51;99585.41;4483672;32;33577;-85
2022/09/21 11:17:11;;;;;;;;;;;;;;;20.41;40.60;99585.12;4469137;32;34092;-84
2022/09/21 11:19:43;;;;;;;;;;;;;;;20.44;39.56;99593.88;4483428;32;34385;-85
2022/09/21 11:22:19;;;;;;;;;;;;;;;20.14;40.39;99585.69;4470300;32;34397;-84
2022/09/21 11:25:02;;;;;;;;;;;;;;;20.48;39.34;99585.00;4483357;32;33746;-85
2022/09/21 11:27:32;;;;;;;;;;;;;;;19.64;40.05;99577.84;4484203;32;34212;-85
2022/09/21 11:30:09;;;;;;;;;;;;;;;20.24;38.16;99586.38;4469170;32;34553;-84
2022/09/21 11:32:44;;;;;;;;;;;;;;;20.12;39.46;99577.81;4483297;32;35429;-85
2022/09/21 11:35:14;;;;;;;;;;;;;;;20.38;39.31;99568.50;4469233;32;34510;-84
2022/09/21 11:37:49;;;;;;;;;;;;;;;20.09;38.84;99569.13;4483363;32;34276;-85
2022/09/21 11:40:16;;;;;;;;;;;;;;;20.45;37.02;99575.38;4469229;32;34590;-85
2022/09/21 11:42:47;;;;;;;;;;;;;;;20.11;35.66;99565.53;4483536;31;34435;-85
2022/09/21 11:45:31;;;;;;;;;;;;;;;20.63;35.90;99569.78;4469194;32;33140;-84
2022/09/21 11:47:58;;;;;;;;;;;;;;;20.22;37.82;99562.69;4483560;32;34821;-86
2022/09/21 11:50:29;;;;;;;;;;;;;;;19.81;36.60;99559.13;4483047;32;33886;-85
2022/09/21 11:53:16;;;;;;;;;;;;;;;20.47;36.41;99562.22;4483181;32;35099;-85
2022/09/21 11:55:46;;;;;;;;;;;;;;;20.58;38.26;99557.63;4483042;32;33325;-84
2022/09/21 11:58:14;;;;;;;;;;;;;;;20.00;39.76;99562.28;4483178;32;34416;-84
2022/09/21 12:00:44;;;;;;;;;;;;;;;19.55;39.85;99564.81;4483476;32;34038;-84
2022/09/21 12:03:30;;;;;;;;;;;;;;;19.44;40.59;99559.75;4483252;32;34572;-85
2022/09/21 12:06:12;;;;;;;;;;;;;;;19.83;40.23;99552.06;4481953;31;33407;-84
2022/09/21 12:08:53;;;;;;;;;;;;;;;20.55;37.71;99550.63;4468914;32;33958;-85
2022/09/21 12:11:20;;;;;;;;;;;;;;;20.78;36.51;99551.91;4468877;32;34361;-84
2022/09/21 12:13:54;;;;;;;;;;;;;;;20.31;37.51;99549.38;4483466;32;34457;-84
2022/09/21 12:16:24;;;;;;;;;;;;;;;19.93;38.59;99551.00;4469133;32;33231;-85
2022/09/21 12:18:54;;;;;;;;;;;;;;;20.39;37.47;99549.22;4483465;32;34061;-85
2022/09/21 12:21:26;;;;;;;;;;;;;;;20.33;37.41;99544.06;4469142;32;33907;-85
2022/09/21 12:23:55;;;;;;;;;;;;;;;20.82;37.66;99549.16;4472002;32;35044;-82
2022/09/21 12:26:40;;;;;;;;;;;;;;;19.66;38.87;99536.59;4485153;32;33654;-85
2022/09/21 12:29:12;;;;;;;;;;;;;;;20.41;37.77;99532.44;4468700;32;34099;-85
2022/09/21 12:31:44;;;;;;;;;;;;;;;20.71;37.59;99540.62;4483495;32;34456;-84
2022/09/21 12:34:18;;;;;;;;;;;;;;;20.55;38.07;99534.81;4468587;32;34303;-85
2022/09/21 12:37:07;;;;;;;;;;;;;;;19.90;38.32;99535.25;4483392;32;33075;-85
2022/09/21 12:39:39;;;;;;;;;;;;;;;20.97;37.24;99532.12;4483882;32;34770;-85
2022/09/21 12:42:09;;;;;;;;;;;;;;;20.02;37.97;99534.16;4468674;32;34974;-85
2022/09/21 12:44:50;;;;;;;;;;;;;;;20.57;36.61;99533.03;4469499;32;35291;-85
2022/09/21 12:47:22;;;;;;;;;;;;;;;19.91;37.65;99530.88;4483719;32;33279;-85
2022/09/21 12:49:50;;;;;;;;;;;;;;;20.30;37.70;99531.81;4482766;32;34677;-85
2022/09/21 12:52:19;;;;;;;;;;;;;;;19.77;37.67;99538.16;4483083;32;34996;-85
2022/09/21 12:54:48;;;;;;;;;;;;;;;19.71;36.20;99533.88;4468023;32;34387;-84
2022/09/21 12:57:25;;;;;;;;;;;;;;;19.68;36.62;99536.56;4468098;32;33458;-84
2022/09/21 13:00:13;;;;;;;;;;;;;;;19.14;37.54;99541.84;4453581;32;917517;-85
2022/09/21 13:02:59;;;;;;;;;;;;;;;20.18;36.30;99535.56;4482414;32;35355;-85
2022/09/21 13:05:26;;;;;;;;;;;;;;;20.33;36.08;99531.75;4483160;32;35293;-84
2022/09/21 13:07:57;;;;;;;;;;;;;;;20.34;36.57;99528.25;4482505;32;33268;-85
2022/09/21 13:10:27;;;;;;;;;;;;;;;20.06;36.43;99517.41;4482705;32;33824;-85